createdAt,value
2023-10-10T00:01:06.961Z,99.90
2023-10-10T00:03:41.303Z,99.90
2023-10-10T00:06:14.635Z,99.90
2023-10-10T00:08:44.798Z,99.90
2023-10-10T00:11:16.149Z,99.90
2023-10-10T00:13:45.007Z,99.90
2023-10-10T00:16:13.316Z,99.90
2023-10-10T00:18:44.942Z,99.90
2023-10-10T00:23:54.514Z,99.90
2023-10-10T00:26:23.564Z,99.90
2023-10-10T00:28:58.199Z,99.90
2023-10-10T00:31:29.792Z,99.90
2023-10-10T00:33:58.006Z,99.90
2023-10-10T00:36:33.080Z,99.90
2023-10-10T00:39:21.074Z,99.90
2023-10-10T00:41:54.721Z,99.90
2023-10-10T00:44:26.686Z,99.90
2023-10-10T00:46:57.560Z,99.90
2023-10-10T00:49:27.644Z,99.90
2023-10-10T00:52:02.327Z,99.90
2023-10-10T00:54:32.904Z,99.90
2023-10-10T00:57:04.805Z,99.90
2023-10-10T00:59:36.560Z,99.90
2023-10-10T01:02:07.662Z,99.90
2023-10-10T01:04:40.396Z,99.90
2023-10-10T01:07:10.481Z,99.90
2023-10-10T01:09:52.791Z,99.90
2023-10-10T01:12:20.785Z,99.90
2023-10-10T01:14:48.852Z,99.90
2023-10-10T01:17:17.297Z,99.90
2023-10-10T01:19:45.553Z,99.90
2023-10-10T01:22:38.037Z,99.90
2023-10-10T01:25:28.031Z,99.90
2023-10-10T01:27:59.163Z,99.90
2023-10-10T01:30:40.997Z,99.90
2023-10-10T01:33:09.184Z,99.90
2023-10-10T01:35:42.636Z,99.90
2023-10-10T01:38:33.043Z,99.90
2023-10-10T01:41:06.118Z,99.90
2023-10-10T01:43:34.712Z,99.90
2023-10-10T01:46:16.219Z,99.90
2023-10-10T01:48:45.439Z,99.90
2023-10-10T01:51:16.079Z,99.90
2023-10-10T01:53:45.396Z,99.90
2023-10-10T01:56:13.542Z,99.90
2023-10-10T01:58:42.357Z,99.90
2023-10-10T02:01:15.904Z,99.90
2023-10-10T02:03:47.401Z,99.90
2023-10-10T02:06:24.152Z,99.90
2023-10-10T02:08:53.878Z,99.90
2023-10-10T02:11:22.883Z,99.90
2023-10-10T02:13:51.793Z,99.90
2023-10-10T02:16:20.150Z,99.90
2023-10-10T02:18:52.763Z,99.90
2023-10-10T02:21:33.373Z,99.90
2023-10-10T02:24:21.348Z,99.90
2023-10-10T02:26:52.794Z,99.90
2023-10-10T02:29:34.711Z,99.90
2023-10-10T02:32:13.608Z,99.90
2023-10-10T02:34:44.074Z,99.90
2023-10-10T02:37:35.564Z,99.90
2023-10-10T02:40:13.556Z,99.90
2023-10-10T02:42:41.545Z,99.90
2023-10-10T02:45:14.376Z,99.90
2023-10-10T02:47:49.991Z,99.90
2023-10-10T02:50:38.161Z,99.90
2023-10-10T02:53:08.822Z,99.90
2023-10-10T02:55:42.474Z,99.90
2023-10-10T02:58:21.584Z,99.90
2023-10-10T03:00:53.615Z,99.90
2023-10-10T03:03:21.738Z,99.90
2023-10-10T03:05:52.855Z,99.90
2023-10-10T03:08:35.663Z,99.90
2023-10-10T03:11:16.081Z,99.90
2023-10-10T03:13:49.269Z,99.90
2023-10-10T03:16:45.164Z,99.90
2023-10-10T03:19:27.149Z,99.90
2023-10-10T03:22:14.297Z,99.90
2023-10-10T03:25:06.387Z,99.90
2023-10-10T03:27:51.751Z,99.90
2023-10-10T03:30:23.393Z,99.90
2023-10-10T03:33:09.807Z,99.90
2023-10-10T03:36:00.720Z,99.90
2023-10-10T03:38:45.491Z,99.90
2023-10-10T03:41:46.877Z,99.90
2023-10-10T03:44:33.731Z,99.90
2023-10-10T03:47:19.310Z,99.90
2023-10-10T03:50:05.002Z,99.90
2023-10-10T03:52:50.625Z,99.90
2023-10-10T03:55:36.471Z,99.90
2023-10-10T03:58:21.868Z,99.90
2023-10-10T04:01:13.776Z,99.90
2023-10-10T04:03:59.460Z,99.90
2023-10-10T04:06:44.957Z,99.90
2023-10-10T04:09:30.401Z,99.90
2023-10-10T04:12:15.834Z,99.90
2023-10-10T04:15:01.459Z,99.90
2023-10-10T04:17:48.308Z,99.90
2023-10-10T04:20:34.062Z,99.90
2023-10-10T04:23:19.747Z,99.90
2023-10-10T04:26:05.374Z,99.90
2023-10-10T04:28:51.155Z,99.90
2023-10-10T04:31:42.135Z,99.90
2023-10-10T04:34:28.980Z,99.90
2023-10-10T04:37:14.323Z,99.90
2023-10-10T04:39:59.832Z,99.90
2023-10-10T04:42:45.206Z,99.90
2023-10-10T04:45:31.123Z,99.90
2023-10-10T04:48:16.747Z,99.90
2023-10-10T04:51:15.707Z,99.90
2023-10-10T04:54:01.308Z,99.90
2023-10-10T04:56:46.759Z,99.90
2023-10-10T04:59:32.660Z,99.90
2023-10-10T05:02:17.917Z,99.90
2023-10-10T05:05:03.322Z,99.90
2023-10-10T05:07:50.025Z,99.90
2023-10-10T05:10:35.774Z,99.90
2023-10-10T05:13:21.004Z,99.90
2023-10-10T05:16:06.813Z,99.90
2023-10-10T05:18:52.702Z,99.90
2023-10-10T05:21:38.075Z,99.90
2023-10-10T05:24:10.321Z,99.90
2023-10-10T05:26:47.564Z,99.90
2023-10-10T05:29:20.473Z,99.90
2023-10-10T05:31:48.727Z,99.90
2023-10-10T05:34:17.196Z,99.90
2023-10-10T05:36:46.298Z,99.90
2023-10-10T05:39:21.871Z,99.90
2023-10-10T05:41:52.647Z,99.90
2023-10-10T05:44:20.627Z,99.90
2023-10-10T05:46:48.779Z,99.90
2023-10-10T05:49:16.799Z,99.90
2023-10-10T05:51:44.707Z,99.90
2023-10-10T05:54:12.751Z,99.90
2023-10-10T05:56:42.381Z,99.90
2023-10-10T05:59:10.508Z,99.90
2023-10-10T06:01:39.686Z,99.90
2023-10-10T06:04:08.801Z,99.90
2023-10-10T06:06:37.397Z,99.90
2023-10-10T06:09:06.858Z,99.90
2023-10-10T06:11:35.849Z,99.90
2023-10-10T06:14:06.318Z,99.90
2023-10-10T06:16:34.404Z,99.90
2023-10-10T06:19:02.541Z,99.90
2023-10-10T06:21:31.228Z,99.90
2023-10-10T06:23:59.191Z,99.90
2023-10-10T06:26:27.148Z,99.90
2023-10-10T06:28:55.637Z,99.90
2023-10-10T06:31:35.117Z,99.90
2023-10-10T06:34:20.624Z,99.90
2023-10-10T06:36:49.417Z,99.90
2023-10-10T06:39:20.135Z,99.90
2023-10-10T06:41:51.344Z,99.90
2023-10-10T06:44:33.356Z,99.90
2023-10-10T06:47:10.004Z,99.90
2023-10-10T06:49:56.425Z,99.90
2023-10-10T06:52:28.804Z,99.90
2023-10-10T06:54:57.642Z,99.90
2023-10-10T06:57:42.468Z,99.90
2023-10-10T07:00:21.900Z,99.90
2023-10-10T07:02:54.997Z,99.90
2023-10-10T07:05:27.643Z,99.90
2023-10-10T07:07:59.490Z,99.90
2023-10-10T07:10:34.050Z,99.90
2023-10-10T07:13:02.231Z,99.90
2023-10-10T07:15:36.026Z,99.90
2023-10-10T07:18:16.542Z,99.90
2023-10-10T07:21:03.625Z,99.90
2023-10-10T07:23:39.465Z,99.90
2023-10-10T07:26:08.669Z,99.90
2023-10-10T07:28:49.101Z,99.90
2023-10-10T07:31:19.863Z,99.90
2023-10-10T07:33:57.272Z,99.90
2023-10-10T07:36:28.536Z,99.90
2023-10-10T07:39:17.133Z,99.90
2023-10-10T07:41:47.331Z,99.90
2023-10-10T07:44:21.127Z,99.90
2023-10-10T07:47:03.132Z,99.90
2023-10-10T07:49:32.480Z,99.90
2023-10-10T07:52:03.567Z,99.90
2023-10-10T07:54:40.073Z,99.90
2023-10-10T07:57:18.327Z,99.90
2023-10-10T07:59:47.649Z,99.90
2023-10-10T08:02:25.833Z,99.90
2023-10-10T08:04:56.131Z,99.90
2023-10-10T08:07:25.144Z,99.90
2023-10-10T08:10:13.371Z,99.90
2023-10-10T08:12:41.698Z,99.80
2023-10-10T08:15:21.147Z,99.90
2023-10-10T08:17:54.830Z,99.90
2023-10-10T08:20:52.495Z,99.30
2023-10-10T08:23:25.634Z,98.80
2023-10-10T08:25:54.190Z,97.70
2023-10-10T08:28:22.410Z,97.30
2023-10-10T08:30:50.688Z,98.00
2023-10-10T08:33:18.822Z,98.80
2023-10-10T08:35:51.029Z,99.10
2023-10-10T08:38:21.269Z,99.20
2023-10-10T08:40:59.051Z,99.10
2023-10-10T08:43:32.700Z,98.90
2023-10-10T08:46:05.037Z,99.00
2023-10-10T08:48:35.402Z,99.00
2023-10-10T08:51:07.188Z,99.00
2023-10-10T08:53:37.565Z,98.50
2023-10-10T08:56:05.760Z,98.70
2023-10-10T08:58:33.721Z,98.50
2023-10-10T09:01:02.105Z,98.40
2023-10-10T09:03:35.658Z,98.00
2023-10-10T09:06:18.548Z,97.70
2023-10-10T09:08:50.978Z,97.70
2023-10-10T09:11:21.570Z,97.40
2023-10-10T09:13:52.472Z,97.10
2023-10-10T09:16:22.943Z,97.10
2023-10-10T09:19:15.947Z,96.70
2023-10-10T09:21:55.291Z,96.10
2023-10-10T09:24:30.104Z,95.40
2023-10-10T09:27:00.418Z,94.80
2023-10-10T09:29:43.324Z,95.10
2023-10-10T09:32:15.201Z,95.60
2023-10-10T09:34:43.233Z,95.90
2023-10-10T09:37:18.942Z,95.60
2023-10-10T09:39:56.291Z,95.20
2023-10-10T09:42:29.698Z,95.00
2023-10-10T09:45:12.247Z,94.50
2023-10-10T09:47:45.106Z,94.00
2023-10-10T09:50:36.627Z,93.50
2023-10-10T09:53:20.612Z,93.50
2023-10-10T09:55:54.583Z,94.10
2023-10-10T09:58:29.427Z,93.90
2023-10-10T10:01:15.461Z,94.20
2023-10-10T10:03:56.526Z,94.30
2023-10-10T10:07:06.156Z,94.90
2023-10-10T10:10:10.346Z,94.70
2023-10-10T10:13:00.556Z,93.70
2023-10-10T10:15:49.756Z,93.40
2023-10-10T10:18:30.264Z,92.50
2023-10-10T10:21:18.039Z,92.00
2023-10-10T10:23:56.774Z,92.40
2023-10-10T10:26:43.174Z,92.20
2023-10-10T10:29:17.781Z,91.60
2023-10-10T10:31:52.879Z,92.10
2023-10-10T10:34:32.949Z,93.10
2023-10-10T10:37:07.660Z,93.70
2023-10-10T10:39:36.350Z,93.40
2023-10-10T10:42:13.140Z,91.40
2023-10-10T10:44:47.892Z,91.20
2023-10-10T10:47:47.848Z,90.80
2023-10-10T10:50:43.616Z,89.60
2023-10-10T10:53:32.771Z,89.30
2023-10-10T10:56:19.664Z,90.00
2023-10-10T10:59:11.285Z,90.00
2023-10-10T11:01:52.433Z,89.80
2023-10-10T11:04:44.366Z,89.40
2023-10-10T11:07:17.751Z,86.60
2023-10-10T11:09:54.179Z,86.80
2023-10-10T11:12:32.745Z,87.50
2023-10-10T11:15:07.945Z,87.50
2023-10-10T11:17:40.117Z,86.90
2023-10-10T11:20:25.114Z,87.50
2023-10-10T11:22:56.477Z,88.80
2023-10-10T11:25:42.467Z,87.40
2023-10-10T11:28:22.968Z,87.40
2023-10-10T11:30:57.572Z,87.30
2023-10-10T11:33:49.068Z,86.90
2023-10-10T11:36:25.611Z,87.20
2023-10-10T11:38:57.168Z,87.70
2023-10-10T11:41:30.469Z,87.80
2023-10-10T11:44:02.749Z,88.00
2023-10-10T11:46:34.198Z,88.60
2023-10-10T11:49:02.295Z,87.10
2023-10-10T11:51:36.494Z,88.60
2023-10-10T11:54:04.644Z,90.00
2023-10-10T11:56:35.584Z,90.70
2023-10-10T11:59:10.939Z,91.10
2023-10-10T12:01:53.118Z,91.40
2023-10-10T12:04:33.173Z,91.00
2023-10-10T12:07:05.368Z,90.80
2023-10-10T12:09:34.526Z,91.50
2023-10-10T12:12:04.474Z,92.80
2023-10-10T12:14:33.275Z,92.90
2023-10-10T12:17:06.849Z,91.60
2023-10-10T12:19:44.655Z,90.50
2023-10-10T12:22:12.767Z,91.40
2023-10-10T12:24:41.641Z,93.40
2023-10-10T12:27:10.247Z,94.00
2023-10-10T12:29:41.643Z,93.30
2023-10-10T12:32:19.931Z,93.50
2023-10-10T12:34:49.007Z,94.10
2023-10-10T12:37:17.994Z,95.10
2023-10-10T12:39:46.909Z,95.30
2023-10-10T12:42:15.025Z,94.70
2023-10-10T12:44:49.013Z,94.80
2023-10-10T12:47:20.579Z,94.00
2023-10-10T12:49:48.655Z,94.20
2023-10-10T12:52:18.460Z,95.10
2023-10-10T12:54:47.818Z,95.00
2023-10-10T12:57:18.743Z,95.60
2023-10-10T12:59:48.632Z,96.50
2023-10-10T13:02:18.469Z,97.10
2023-10-10T13:04:52.701Z,97.30
2023-10-10T13:07:22.384Z,97.70
2023-10-10T13:09:51.029Z,97.90
2023-10-10T13:12:31.948Z,97.90
2023-10-10T13:15:17.714Z,98.10
2023-10-10T13:17:55.364Z,98.70
2023-10-10T13:20:23.713Z,98.60
2023-10-10T13:22:52.552Z,99.10
2023-10-10T13:25:23.191Z,99.30
2023-10-10T13:27:53.549Z,99.40
2023-10-10T13:30:22.000Z,99.60
2023-10-10T13:32:52.284Z,99.90
2023-10-10T13:35:22.297Z,99.90
2023-10-10T13:37:50.235Z,99.70
2023-10-10T13:40:24.053Z,99.40
2023-10-10T13:42:52.244Z,98.60
2023-10-10T13:45:23.136Z,98.70
2023-10-10T13:47:52.664Z,98.60
2023-10-10T13:50:42.487Z,98.40
2023-10-10T13:53:13.884Z,98.10
2023-10-10T13:55:43.594Z,97.70
2023-10-10T13:58:13.701Z,97.50
2023-10-10T14:00:44.389Z,97.80
2023-10-10T14:03:16.053Z,97.00
2023-10-10T14:06:01.576Z,96.50
2023-10-10T14:08:31.676Z,96.30
2023-10-10T14:11:01.524Z,96.00
2023-10-10T14:13:29.891Z,94.20
2023-10-10T14:15:58.890Z,94.50
2023-10-10T14:18:30.010Z,94.90
2023-10-10T14:21:02.279Z,95.50
2023-10-10T14:23:36.618Z,96.60
2023-10-10T14:26:21.741Z,97.00
2023-10-10T14:28:52.463Z,97.20
2023-10-10T14:31:22.724Z,96.80
2023-10-10T14:33:53.193Z,96.70
2023-10-10T14:36:21.178Z,96.60
2023-10-10T14:38:51.372Z,97.50
2023-10-10T14:41:21.707Z,97.80
2023-10-10T14:43:52.444Z,98.20
2023-10-10T14:46:23.471Z,98.70
2023-10-10T14:49:02.094Z,99.20
2023-10-10T14:51:34.945Z,99.70
2023-10-10T14:54:08.140Z,99.90
2023-10-10T14:56:37.829Z,99.90
2023-10-10T14:59:07.298Z,99.30
2023-10-10T15:01:37.169Z,99.20
2023-10-10T15:04:07.776Z,99.10
2023-10-10T15:06:36.038Z,99.10
2023-10-10T15:09:04.350Z,99.30
2023-10-10T15:11:34.219Z,99.60
2023-10-10T15:14:02.230Z,99.90
2023-10-10T15:16:36.609Z,99.90
2023-10-10T15:19:07.869Z,99.90
2023-10-10T15:21:36.349Z,99.90
2023-10-10T15:24:06.154Z,99.90
2023-10-10T15:26:35.878Z,99.90
2023-10-10T15:29:04.437Z,99.90
2023-10-10T15:31:33.017Z,99.90
2023-10-10T15:34:01.577Z,99.90
2023-10-10T15:36:31.559Z,99.90
2023-10-10T15:39:05.028Z,99.90
2023-10-10T15:41:33.924Z,99.90
2023-10-10T15:44:03.611Z,99.90
2023-10-10T15:46:33.335Z,99.90
2023-10-10T15:49:01.702Z,99.90
2023-10-10T15:51:35.197Z,99.90
2023-10-10T15:54:04.387Z,99.90
2023-10-10T15:56:32.729Z,99.90
2023-10-10T15:59:02.099Z,99.90
2023-10-10T16:01:31.713Z,99.90
2023-10-10T16:04:06.293Z,99.90
2023-10-10T16:06:36.716Z,99.90
2023-10-10T16:09:11.876Z,99.90
2023-10-10T16:11:41.457Z,99.90
2023-10-10T16:14:12.653Z,99.90
2023-10-10T16:16:44.972Z,99.90
2023-10-10T16:19:14.618Z,99.90
2023-10-10T16:21:45.401Z,99.90
2023-10-10T16:24:15.780Z,99.90
2023-10-10T16:26:44.232Z,99.90
2023-10-10T16:29:13.659Z,99.90
2023-10-10T16:31:44.827Z,99.90
2023-10-10T16:34:13.567Z,99.90
2023-10-10T16:36:43.280Z,99.90
2023-10-10T16:39:12.369Z,99.90
2023-10-10T16:41:40.930Z,99.90
2023-10-10T16:44:12.360Z,99.90
2023-10-10T16:46:42.110Z,99.90
2023-10-10T16:49:10.672Z,99.90
2023-10-10T16:51:38.596Z,99.90
2023-10-10T16:54:08.338Z,99.90
2023-10-10T16:56:36.611Z,99.90
2023-10-10T16:59:06.032Z,99.90
2023-10-10T17:01:35.862Z,99.90
2023-10-10T17:04:04.546Z,99.90
2023-10-10T17:06:33.450Z,99.90
2023-10-10T17:09:01.463Z,99.90
2023-10-10T17:11:30.858Z,99.90
2023-10-10T17:14:00.791Z,99.90
2023-10-10T17:16:30.305Z,99.90
2023-10-10T17:21:31.646Z,99.90
2023-10-10T17:24:01.065Z,99.90
2023-10-10T17:26:31.510Z,99.90
2023-10-10T17:29:00.523Z,99.90
2023-10-10T17:31:28.677Z,99.90
2023-10-10T17:34:02.469Z,99.90
2023-10-10T17:36:30.681Z,99.90
2023-10-10T17:38:59.249Z,99.90
2023-10-10T17:41:27.232Z,99.90
2023-10-10T17:43:58.131Z,99.90
2023-10-10T17:46:26.107Z,99.90
2023-10-10T17:48:56.054Z,99.90
2023-10-10T17:51:25.021Z,99.90
2023-10-10T17:53:54.077Z,99.90
2023-10-10T17:56:24.644Z,99.90
2023-10-10T17:58:53.262Z,99.90
2023-10-10T18:01:22.849Z,99.90
2023-10-10T18:03:54.279Z,99.90
2023-10-10T18:06:23.846Z,99.90
2023-10-10T18:08:53.926Z,99.90
2023-10-10T18:11:26.223Z,99.90
2023-10-10T18:13:54.510Z,99.90
2023-10-10T18:16:23.858Z,99.90
2023-10-10T18:18:53.289Z,99.90
2023-10-10T18:21:22.330Z,99.90
2023-10-10T18:23:50.466Z,99.90
2023-10-10T18:26:21.522Z,99.90
2023-10-10T18:28:50.776Z,99.90
2023-10-10T18:31:22.478Z,99.90
2023-10-10T18:33:53.293Z,99.90
2023-10-10T18:36:21.503Z,99.90
2023-10-10T18:38:51.173Z,99.90
2023-10-10T18:41:23.644Z,99.90
2023-10-10T18:43:51.706Z,99.90
2023-10-10T18:46:19.704Z,99.90
2023-10-10T18:48:47.827Z,99.90
2023-10-10T18:51:18.131Z,99.90
2023-10-10T18:53:48.355Z,99.90
2023-10-10T18:56:16.741Z,99.90
2023-10-10T18:58:44.713Z,99.90
2023-10-10T19:01:13.875Z,99.90
2023-10-10T19:03:47.967Z,99.90
2023-10-10T19:06:18.980Z,99.90
2023-10-10T19:08:47.361Z,99.90
2023-10-10T19:11:16.195Z,99.90
2023-10-10T19:13:49.766Z,99.90
2023-10-10T19:16:18.794Z,99.90
2023-10-10T19:18:47.281Z,99.90
2023-10-10T19:21:17.904Z,99.90
2023-10-10T19:23:48.592Z,99.90
2023-10-10T19:26:16.585Z,99.90
2023-10-10T19:28:45.093Z,99.90
2023-10-10T19:31:15.483Z,99.90
2023-10-10T19:33:43.862Z,99.90
2023-10-10T19:36:11.911Z,99.90
2023-10-10T19:38:42.148Z,99.90
2023-10-10T19:41:11.111Z,99.90
2023-10-10T19:43:39.556Z,99.90
2023-10-10T19:46:11.738Z,99.90
2023-10-10T19:48:42.315Z,99.90
2023-10-10T19:51:18.511Z,99.90
2023-10-10T19:53:51.126Z,99.90
2023-10-10T19:56:19.778Z,99.90
2023-10-10T19:58:47.711Z,99.90
2023-10-10T20:01:16.911Z,99.90
2023-10-10T20:03:45.215Z,99.90
2023-10-10T20:06:20.924Z,99.90
2023-10-10T20:08:53.423Z,99.90
2023-10-10T20:11:22.506Z,99.90
2023-10-10T20:13:50.493Z,99.90
2023-10-10T20:16:20.563Z,99.90
2023-10-10T20:18:48.914Z,99.90
2023-10-10T20:21:17.899Z,99.90
2023-10-10T20:23:46.134Z,99.90
2023-10-10T20:26:20.164Z,99.90
2023-10-10T20:28:49.679Z,99.90
2023-10-10T20:31:19.802Z,99.90
2023-10-10T20:33:49.507Z,99.90
2023-10-10T20:36:18.060Z,99.90
2023-10-10T20:38:46.363Z,99.90
2023-10-10T20:41:16.011Z,99.90
2023-10-10T20:43:44.826Z,99.90
2023-10-10T20:46:19.336Z,99.90
2023-10-10T20:48:48.546Z,99.90
2023-10-10T20:51:16.729Z,99.90
2023-10-10T20:53:46.653Z,99.90
2023-10-10T20:56:17.998Z,99.90
2023-10-10T20:58:46.133Z,99.90
2023-10-10T21:01:14.907Z,99.90
2023-10-10T21:03:43.962Z,99.90
2023-10-10T21:06:12.709Z,99.90
2023-10-10T21:08:41.308Z,99.90
2023-10-10T21:11:10.362Z,99.90
2023-10-10T21:13:40.177Z,99.90
2023-10-10T21:16:15.900Z,99.90
2023-10-10T21:18:46.186Z,99.90
2023-10-10T21:21:14.471Z,99.90
2023-10-10T21:23:43.550Z,99.90
2023-10-10T21:26:14.856Z,99.90
2023-10-10T21:28:45.624Z,99.90
2023-10-10T21:31:13.866Z,99.90
2023-10-10T21:33:45.190Z,99.90
2023-10-10T21:36:14.008Z,99.90
2023-10-10T21:38:42.427Z,99.90
2023-10-10T21:41:11.110Z,99.90
2023-10-10T21:43:39.635Z,99.90
2023-10-10T21:46:09.571Z,99.90
2023-10-10T21:48:37.840Z,99.90
2023-10-10T21:51:08.456Z,99.90
2023-10-10T21:53:37.769Z,99.90
2023-10-10T21:56:06.770Z,99.90
2023-10-10T21:58:34.885Z,99.90
2023-10-10T22:01:04.298Z,99.90
2023-10-10T22:03:34.630Z,99.90
2023-10-10T22:06:03.248Z,99.90
2023-10-10T22:08:31.480Z,99.90
2023-10-10T22:11:03.261Z,99.90
2023-10-10T22:13:31.531Z,99.90
2023-10-10T22:15:59.596Z,99.90
2023-10-10T22:18:31.178Z,99.90
2023-10-10T22:21:01.566Z,99.90
2023-10-10T22:23:29.552Z,99.90
2023-10-10T22:26:03.730Z,99.90
2023-10-10T22:28:32.913Z,99.90
2023-10-10T22:31:00.939Z,99.90
2023-10-10T22:33:29.278Z,99.90
2023-10-10T22:35:57.382Z,99.90
2023-10-10T22:38:26.746Z,99.90
2023-10-10T22:40:57.084Z,99.90
2023-10-10T22:43:26.599Z,99.90
2023-10-10T22:45:54.665Z,99.90
2023-10-10T22:48:22.986Z,99.90
2023-10-10T22:50:53.985Z,99.90
2023-10-10T22:53:22.174Z,99.90
2023-10-10T22:55:52.128Z,99.90
2023-10-10T22:58:21.414Z,99.90
2023-10-10T23:00:49.751Z,99.90
2023-10-10T23:03:20.007Z,99.90
2023-10-10T23:05:48.870Z,99.90
2023-10-10T23:08:19.151Z,99.90
2023-10-10T23:10:49.478Z,99.90
2023-10-10T23:13:19.839Z,99.90
2023-10-10T23:15:51.313Z,99.90
2023-10-10T23:18:19.567Z,99.90
2023-10-10T23:20:47.797Z,99.90
2023-10-10T23:23:17.164Z,99.90
2023-10-10T23:25:45.420Z,99.90
2023-10-10T23:28:13.356Z,99.90
2023-10-10T23:30:43.398Z,99.90
2023-10-10T23:33:12.278Z,99.90
2023-10-10T23:35:41.554Z,99.90
2023-10-10T23:38:10.706Z,99.90
2023-10-10T23:40:42.852Z,99.90
2023-10-10T23:43:19.230Z,99.90
2023-10-10T23:45:55.422Z,99.90
2023-10-10T23:48:30.133Z,99.90
2023-10-10T23:50:58.696Z,99.90
2023-10-10T23:53:26.639Z,99.90
2023-10-10T23:55:56.287Z,99.90
2023-10-10T23:58:26.486Z,99.90
